Time;durP1;ratioP1;P1;durP2;ratioP2;P2;SDS_P1;SDS_P2;PMS_P1;PMS_P2;Temp;Humidity;BMP_temperature;BMP_pressure;BME280_temperature;BME280_humidity;BME280_pressure;Samples;Min_cycle;Max_cycle;Signal;HPM_P1;HPM_P2
2022/03/31 00:00:39;;;;;;;23.38;20.70;;;;;;;11.52;60.30;100008.06;5013702;28;102405;-51
2022/03/31 00:03:08;;;;;;;22.95;20.42;;;;;;;11.53;60.26;100012.41;5014814;28;102414;-51
2022/03/31 00:05:36;;;;;;;24.52;20.15;;;;;;;11.53;60.63;100012.41;5013059;28;103856;-50
2022/03/31 00:08:06;;;;;;;21.67;19.35;;;;;;;11.52;60.42;100008.88;5013162;28;102552;-50
2022/03/31 00:10:34;;;;;;;21.58;18.98;;;;;;;11.52;60.38;100005.34;5003835;28;102026;-51
2022/03/31 00:13:04;;;;;;;21.20;18.97;;;;;;;11.53;60.49;100006.94;5005477;28;102114;-50
2022/03/31 00:15:32;;;;;;;22.38;19.48;;;;;;;11.52;60.14;100005.34;5013798;28;103779;-51
2022/03/31 00:18:02;;;;;;;22.92;20.17;;;;;;;11.52;60.45;100005.34;5011764;28;104197;-50
2022/03/31 00:20:36;;;;;;;24.05;19.50;;;;;;;11.53;60.28;100001.50;5013082;28;102422;-51
2022/03/31 00:23:05;;;;;;;22.70;20.05;;;;;;;11.52;60.32;100002.59;5015322;28;102458;-50
2022/03/31 00:25:35;;;;;;;25.10;19.73;;;;;;;11.51;60.30;99998.28;5012788;28;103875;-51
2022/03/31 00:28:04;;;;;;;22.15;19.10;;;;;;;11.52;60.50;99999.88;5003387;28;102413;-51
2022/03/31 00:30:35;;;;;;;30.80;20.75;;;;;;;11.51;60.65;99996.34;4993641;28;102237;-51
2022/03/31 00:33:03;;;;;;;24.90;19.55;;;;;;;11.51;60.41;99993.63;4994250;28;102141;-51
2022/03/31 00:35:30;;;;;;;24.10;19.63;;;;;;;11.50;60.60;99997.47;4992805;28;103922;-51
2022/03/31 00:37:57;;;;;;;24.58;19.95;;;;;;;11.52;60.50;99988.97;4994043;28;102506;-51
2022/03/31 00:40:24;;;;;;;21.70;18.27;;;;;;;11.51;60.77;99980.00;4993779;28;102365;-50
2022/03/31 00:42:54;;;;;;;21.80;19.45;;;;;;;11.52;60.43;99983.53;5009309;28;102131;-50
2022/03/31 00:45:23;;;;;;;23.27;19.08;;;;;;;11.51;60.74;99982.72;5010496;28;104092;-51
2022/03/31 00:47:51;;;;;;;22.65;19.88;;;;;;;11.52;60.68;99983.53;5009431;28;101803;-50
2022/03/31 00:50:19;;;;;;;24.80;19.13;;;;;;;11.52;60.71;99986.25;4993158;28;102456;-50
2022/03/31 00:52:46;;;;;;;23.35;19.33;;;;;;;11.51;60.47;99977.28;4994126;28;102408;-51
2022/03/31 00:55:18;;;;;;;22.87;19.20;;;;;;;11.51;60.56;99979.19;4992385;28;103985;-50
2022/03/31 00:57:45;;;;;;;23.70;19.02;;;;;;;11.51;60.40;99976.47;4993312;28;101932;-50
2022/03/31 01:00:17;;;;;;;23.88;18.60;;;;;;;11.51;60.75;99976.47;5001460;28;102582;-50
2022/03/31 01:02:44;;;;;;;22.08;18.73;;;;;;;11.51;60.91;99981.91;4993051;28;102477;-50
2022/03/31 01:05:12;;;;;;;24.88;19.48;;;;;;;11.51;60.92;99973.75;4997254;28;103839;-51
2022/03/31 01:07:43;;;;;;;22.65;18.10;;;;;;;11.51;60.50;99971.03;5013090;28;102624;-50
2022/03/31 01:10:13;;;;;;;20.48;17.48;;;;;;;11.50;60.78;99969.38;5007539;28;102628;-51
2022/03/31 01:12:42;;;;;;;23.58;19.00;;;;;;;11.51;60.75;99973.75;5012553;28;102565;-50
2022/03/31 01:15:11;;;;;;;22.02;17.98;;;;;;;11.50;60.86;99972.09;5012002;28;103974;-50
2022/03/31 01:17:39;;;;;;;;;;;;;;;11.51;60.72;99981.91;5012752;28;102579;-51
2022/03/31 01:20:08;;;;;;;21.10;17.60;;;;;;;11.51;60.85;99971.03;5011155;28;102033;-50
2022/03/31 01:22:36;;;;;;;27.45;19.92;;;;;;;11.50;60.88;99958.47;5012954;28;102164;-51
2022/03/31 01:25:07;;;;;;;25.60;19.10;;;;;;;11.50;60.56;99958.47;5012296;28;104038;-50
2022/03/31 01:27:35;;;;;;;21.35;18.23;;;;;;;11.50;60.82;99962.03;5012332;28;101928;-51
2022/03/31 01:30:04;;;;;;;24.92;18.50;;;;;;;11.50;60.74;99958.47;5011099;28;102166;-50
2022/03/31 01:32:32;;;;;;;21.10;18.65;;;;;;;11.50;61.14;99964.78;5012638;28;102526;-50
2022/03/31 01:34:58;;;;;;;22.35;18.00;;;;;;;11.51;60.72;99962.84;5010406;28;103886;-51
2022/03/31 01:37:25;;;;;;;20.13;17.95;;;;;;;11.51;60.78;99966.38;5008032;28;102468;-51
2022/03/31 01:39:51;;;;;;;20.70;17.23;;;;;;;11.51;60.63;99973.75;4992119;28;102168;-51
2022/03/31 01:42:20;;;;;;;20.15;18.08;;;;;;;11.51;60.66;99979.19;4992505;28;102134;-50
2022/03/31 01:44:46;;;;;;;20.92;17.52;;;;;;;11.51;60.79;99968.31;4991877;28;103931;-50
2022/03/31 01:47:14;;;;;;;20.45;18.17;;;;;;;11.51;60.81;99965.56;4991048;28;102604;-51
2022/03/31 01:49:40;;;;;;;20.10;17.83;;;;;;;11.51;60.69;99971.03;4992363;28;102348;-50
2022/03/31 01:52:07;;;;;;;21.92;17.88;;;;;;;11.50;60.80;99962.03;4992587;28;102429;-50
2022/03/31 01:54:35;;;;;;;24.42;18.65;;;;;;;11.51;60.75;99971.03;4991409;28;103887;-50
2022/03/31 01:57:03;;;;;;;19.70;16.52;;;;;;;11.51;60.96;99965.56;5008968;28;102203;-50
2022/03/31 01:59:38;;;;;;;23.45;19.35;;;;;;;11.51;60.94;99957.41;5011883;28;101994;-50
2022/03/31 02:02:05;;;;;;;24.92;18.35;;;;;;;11.51;61.03;99954.66;5005505;28;102235;-50
2022/03/31 02:04:32;;;;;;;21.88;17.25;;;;;;;11.51;60.98;99958.19;5008196;28;104101;-50
2022/03/31 02:07:00;;;;;;;21.50;17.27;;;;;;;11.50;60.65;99953.88;5000330;28;101997;-50
2022/03/31 02:09:27;;;;;;;22.65;17.42;;;;;;;11.51;60.80;99957.41;5011247;28;102151;-51
2022/03/31 02:11:57;;;;;;;21.10;17.25;;;;;;;11.51;60.84;99949.22;5007574;28;102767;-51
2022/03/31 02:14:25;;;;;;;20.85;16.88;;;;;;;11.50;60.91;99953.03;5008042;28;104087;-50
2022/03/31 02:16:55;;;;;;;23.75;18.40;;;;;;;11.51;61.20;99951.94;5008963;28;102286;-50
2022/03/31 02:19:23;;;;;;;19.42;16.83;;;;;;;11.51;60.76;99951.94;5011029;28;102386;-50
2022/03/31 02:21:51;;;;;;;22.05;17.00;;;;;;;11.51;61.46;99951.94;5008741;28;102332;-51
2022/03/31 02:24:18;;;;;;;19.00;17.00;;;;;;;11.50;60.89;99942.13;5008891;28;103864;-51
2022/03/31 02:26:44;;;;;;;19.90;16.88;;;;;;;11.50;60.86;99950.31;5011040;28;102417;-50
2022/03/31 02:29:12;;;;;;;21.05;16.77;;;;;;;11.51;60.85;99960.13;5010995;28;101930;-51
2022/03/31 02:31:38;;;;;;;18.73;16.83;;;;;;;11.51;61.22;99965.56;5011796;28;102176;-50
2022/03/31 02:34:09;;;;;;;17.67;14.98;;;;;;;11.51;60.70;99962.84;4995870;28;103935;-50
2022/03/31 02:36:36;;;;;;;21.93;18.07;;;;;;;11.51;61.04;99960.94;4991284;28;102471;-51
2022/03/31 02:39:03;;;;;;;20.27;16.67;;;;;;;11.52;60.87;99967.19;4991431;28;101981;-51
2022/03/31 02:41:29;;;;;;;21.88;16.40;;;;;;;11.51;61.26;99960.94;4996636;28;102193;-51
2022/03/31 02:43:56;;;;;;;18.42;16.45;;;;;;;11.51;60.89;99954.66;4997438;28;103993;-51
2022/03/31 02:46:23;;;;;;;18.60;15.77;;;;;;;11.50;61.22;99953.88;4991403;28;102443;-50
2022/03/31 02:48:50;;;;;;;18.00;16.15;;;;;;;11.51;60.93;99958.19;4990683;28;101932;-50
2022/03/31 02:51:17;;;;;;;20.17;17.30;;;;;;;11.51;61.31;99949.22;4991490;28;102443;-51
2022/03/31 02:56:30;;;;;;;23.50;16.08;;;;;;;11.50;61.40;99953.03;4991546;28;102611;-50
2022/03/31 02:58:57;;;;;;;20.00;16.52;;;;;;;11.50;61.42;99955.75;4991919;28;101915;-51
2022/03/31 03:01:24;;;;;;;22.40;16.58;;;;;;;11.50;61.18;99958.47;4997256;28;102088;-50
2022/03/31 03:03:51;;;;;;;22.63;16.38;;;;;;;11.50;61.30;99967.50;5005267;28;104110;-50
2022/03/31 03:06:19;;;;;;;19.63;17.10;;;;;;;11.50;61.31;99970.22;5010142;28;101993;-50
2022/03/31 03:08:48;;;;;;;22.02;16.48;;;;;;;11.50;61.22;99955.75;5010858;28;101830;-50
2022/03/31 03:11:15;;;;;;;21.58;16.52;;;;;;;11.49;61.40;99954.94;5006461;28;102440;-50
2022/03/31 03:13:42;;;;;;;18.58;15.50;;;;;;;11.48;61.29;99955.25;4990210;28;103932;-51
2022/03/31 03:16:09;;;;;;;20.25;15.93;;;;;;;11.48;61.29;99961.50;4990682;28;101880;-51
2022/03/31 03:18:36;;;;;;;19.42;15.25;;;;;;;11.47;61.68;99965.34;4991506;28;102219;-50
2022/03/31 03:21:04;;;;;;;19.52;14.95;;;;;;;11.48;61.62;99966.16;5000622;28;102300;-50
2022/03/31 03:23:33;;;;;;;21.77;14.65;;;;;;;11.48;61.41;99966.16;5010352;28;103875;-51
2022/03/31 03:26:01;;;;;;;19.90;14.73;;;;;;;11.47;61.40;99978.16;5010497;28;101932;-50
2022/03/31 03:28:27;;;;;;;20.17;14.88;;;;;;;11.48;61.38;99971.59;5002344;28;105439;-50
2022/03/31 03:30:54;;;;;;;18.00;14.52;;;;;;;11.48;61.33;99982.50;4991829;28;102434;-51
2022/03/31 03:33:20;;;;;;;16.98;14.98;;;;;;;11.47;61.54;99987.16;4997059;28;104038;-50
2022/03/31 03:35:47;;;;;;;19.70;15.00;;;;;;;11.47;61.71;99994.53;5010794;28;102332;-51
2022/03/31 03:38:17;;;;;;;17.65;14.60;;;;;;;11.48;61.67;99993.41;5008745;28;101921;-51
2022/03/31 03:40:45;;;;;;;18.98;14.82;;;;;;;11.47;61.47;100024.50;5011576;28;102458;-51
2022/03/31 03:43:12;;;;;;;18.20;14.27;;;;;;;11.48;61.18;99998.84;5009449;28;103979;-51
2022/03/31 03:45:42;;;;;;;17.50;14.02;;;;;;;11.47;61.62;99992.59;5009355;28;102617;-51
2022/03/31 03:48:11;;;;;;;17.77;13.80;;;;;;;11.47;61.40;100002.69;5008677;28;102364;-51
2022/03/31 03:50:38;;;;;;;20.60;15.40;;;;;;;11.46;61.72;100006.50;5011712;28;102247;-50
2022/03/31 03:53:05;;;;;;;20.40;13.93;;;;;;;11.47;61.68;100017.13;5009355;28;103934;-51
2022/03/31 03:55:32;;;;;;;18.80;13.60;;;;;;;11.47;61.15;100008.16;5010783;28;102331;-51
2022/03/31 03:58:01;;;;;;;17.75;13.25;;;;;;;11.47;61.70;100002.69;5008510;28;102016;-51
2022/03/31 04:00:28;;;;;;;17.65;13.43;;;;;;;11.46;61.57;100001.06;5011824;28;102178;-51
2022/03/31 04:02:57;;;;;;;19.13;14.35;;;;;;;11.47;61.79;99997.25;5009003;28;104026;-50
2022/03/31 04:05:23;;;;;;;19.90;13.73;;;;;;;11.47;61.60;99995.31;5007638;28;102555;-51
2022/03/31 04:07:49;;;;;;;21.52;14.40;;;;;;;11.47;61.55;100008.16;4992453;28;101911;-51
2022/03/31 04:10:16;;;;;;;17.67;13.30;;;;;;;11.47;61.59;99999.97;5010980;28;102229;-51
2022/03/31 04:12:43;;;;;;;18.48;12.90;;;;;;;11.47;61.74;99998.06;5009419;28;103764;-51
2022/03/31 04:15:15;;;;;;;20.38;14.00;;;;;;;11.47;61.35;100005.41;5010011;28;102304;-51
2022/03/31 04:17:42;;;;;;;16.10;12.32;;;;;;;11.46;61.53;100007.31;5009263;28;101988;-52
2022/03/31 04:20:11;;;;;;;15.40;13.13;;;;;;;11.47;61.58;100002.69;5011776;28;102357;-51
2022/03/31 04:22:38;;;;;;;18.35;13.35;;;;;;;11.47;61.92;100005.41;5005695;28;103989;-51
2022/03/31 04:25:07;;;;;;;18.42;13.00;;;;;;;11.47;61.83;100008.16;4995083;28;102345;-51
2022/03/31 04:27:35;;;;;;;19.35;12.55;;;;;;;11.47;61.85;99997.25;5011271;28;101889;-51
2022/03/31 04:30:03;;;;;;;18.95;12.32;;;;;;;11.47;61.57;99997.25;5006628;28;102703;-51
2022/03/31 04:32:32;;;;;;;14.45;11.45;;;;;;;11.48;61.30;99998.84;5014044;28;103950;-51
2022/03/31 04:34:59;;;;;;;16.33;11.75;;;;;;;11.48;61.73;99994.22;5015572;28;102100;-51
2022/03/31 04:37:26;;;;;;;16.67;11.30;;;;;;;11.48;61.31;99999.66;5013903;28;102214;-51
2022/03/31 04:39:54;;;;;;;17.27;11.13;;;;;;;11.48;61.50;99999.66;5007641;28;102277;-51
2022/03/31 04:42:21;;;;;;;15.13;11.57;;;;;;;11.50;61.26;100010.25;5011665;28;103983;-51
2022/03/31 04:44:48;;;;;;;14.35;10.98;;;;;;;11.51;61.42;100006.44;5013841;28;102393;-51
2022/03/31 04:47:15;;;;;;;13.25;10.63;;;;;;;11.50;61.46;100002.06;4995498;28;102377;-51
2022/03/31 04:49:44;;;;;;;15.98;10.60;;;;;;;11.51;61.53;100003.72;5002063;28;102805;-51
2022/03/31 04:52:11;;;;;;;14.45;10.32;;;;;;;11.51;61.53;100009.16;4996246;28;103996;-55
2022/03/31 04:54:43;;;;;;;18.02;10.57;;;;;;;11.51;61.67;100007.25;5013962;28;102365;-52
2022/03/31 04:57:11;;;;;;;15.23;9.95;;;;;;;11.51;61.37;100001.00;4992785;28;101900;-51
2022/03/31 04:59:38;;;;;;;18.60;10.55;;;;;;;11.51;61.88;100009.16;4994710;28;102213;-51
2022/03/31 05:02:05;;;;;;;14.38;10.60;;;;;;;11.52;61.56;100008.06;5003411;28;104023;-51
2022/03/31 05:04:32;;;;;;;16.20;10.75;;;;;;;11.52;61.80;100006.13;4998287;28;102092;-51
2022/03/31 05:07:00;;;;;;;12.63;9.63;;;;;;;11.51;61.50;100007.25;4992751;28;102646;-51
2022/03/31 05:09:26;;;;;;;13.15;9.95;;;;;;;11.52;61.35;100002.59;5002498;28;104048;-51
2022/03/31 05:11:55;;;;;;;;;;;;;;;11.53;61.39;100002.31;5000842;28;103907;-51
2022/03/31 05:14:22;;;;;;;12.60;8.85;;;;;;;11.53;61.13;99999.56;5003538;28;102652;-51
2022/03/31 05:17:00;;;;;;;10.20;8.93;;;;;;;11.53;61.47;100007.75;4992622;28;102495;-51
2022/03/31 05:19:27;;;;;;;13.38;9.80;;;;;;;11.54;61.48;100001.22;5004630;28;102503;-51
2022/03/31 05:21:54;;;;;;;14.20;9.93;;;;;;;11.54;61.45;100000.41;4997690;28;104083;-51
2022/03/31 05:24:23;;;;;;;14.95;9.50;;;;;;;11.54;61.38;100003.94;5000025;28;102125;-51
2022/03/31 05:26:53;;;;;;;11.70;8.80;;;;;;;11.55;61.44;99999.28;5012010;28;102370;-51
2022/03/31 05:29:21;;;;;;;12.93;9.60;;;;;;;11.55;61.67;100002.81;5014070;28;102189;-51
2022/03/31 05:31:48;;;;;;;11.65;8.73;;;;;;;11.57;61.57;99997.06;5014086;28;103844;-51
2022/03/31 05:34:14;;;;;;;12.23;9.27;;;;;;;11.56;61.23;99995.47;5034276;27;102217;-51
2022/03/31 05:36:42;;;;;;;11.93;8.85;;;;;;;11.57;61.42;100002.53;5033039;27;102377;-51
2022/03/31 05:39:08;;;;;;;10.88;8.32;;;;;;;11.58;61.30;99990.53;5020626;27;102079;-51
2022/03/31 05:41:37;;;;;;;15.18;9.70;;;;;;;11.58;61.51;99993.25;4999688;28;103934;-51
2022/03/31 05:44:04;;;;;;;12.65;8.73;;;;;;;11.57;61.57;99983.44;5013825;28;102273;-51
2022/03/31 05:46:31;;;;;;;14.43;8.77;;;;;;;11.59;61.08;99983.16;5011981;28;101869;-51
2022/03/31 05:48:58;;;;;;;12.02;8.55;;;;;;;11.59;61.38;99978.53;5013690;28;102301;-51
2022/03/31 05:51:24;;;;;;;15.80;8.93;;;;;;;11.58;61.39;99976.91;5012079;28;104153;-51
2022/03/31 05:53:51;;;;;;;13.48;8.73;;;;;;;11.60;61.37;99985.59;5012557;28;102063;-51
2022/03/31 05:56:19;;;;;;;14.90;8.98;;;;;;;11.61;61.12;99970.03;5011676;28;101913;-51
2022/03/31 05:58:47;;;;;;;16.65;9.48;;;;;;;11.61;61.39;99973.59;5000597;28;102096;-51
2022/03/31 06:01:14;;;;;;;17.87;9.53;;;;;;;11.62;61.57;99974.41;4992057;28;103855;-51
2022/03/31 06:03:40;;;;;;;15.45;8.80;;;;;;;11.62;61.69;99972.47;5006735;28;102038;-52
2022/03/31 06:06:07;;;;;;;15.70;8.85;;;;;;;11.64;61.44;99975.72;5011861;28;102022;-51
2022/03/31 06:08:33;;;;;;;13.13;8.80;;;;;;;11.65;61.39;99971.06;5012651;28;102482;-51
2022/03/31 06:10:59;;;;;;;14.50;8.98;;;;;;;11.65;61.46;99968.34;5011734;28;103869;-51
2022/03/31 06:13:26;;;;;;;18.25;9.30;;;;;;;11.66;61.41;99973.50;5009258;28;102575;-51
2022/03/31 06:15:54;;;;;;;18.00;9.35;;;;;;;11.67;61.59;99975.13;5007610;28;102457;-51
2022/03/31 06:18:23;;;;;;;16.97;9.20;;;;;;;11.68;61.38;99963.09;5012148;28;102293;-51
2022/03/31 06:20:50;;;;;;;15.05;8.73;;;;;;;11.69;61.79;99964.75;5010940;28;103883;-52
2022/03/31 06:23:33;;;;;;;17.88;10.43;;;;;;;11.71;61.78;99969.88;5011225;28;101984;-51
2022/03/31 06:26:01;;;;;;;27.67;15.98;;;;;;;11.70;61.38;99966.34;5011355;28;102432;-51
2022/03/31 06:28:30;;;;;;;30.70;17.75;;;;;;;11.72;61.63;99972.31;5008830;28;102233;-51
2022/03/31 06:30:59;;;;;;;29.55;17.70;;;;;;;11.72;61.64;99972.31;5010902;28;103941;-52
2022/03/31 06:33:25;;;;;;;33.67;18.00;;;;;;;11.72;61.30;99968.75;4992758;28;102013;-51
2022/03/31 06:35:53;;;;;;;29.60;16.40;;;;;;;11.73;61.56;99963.03;5008962;28;102285;-51
2022/03/31 06:38:20;;;;;;;33.63;18.35;;;;;;;11.74;61.94;99959.19;5012445;28;102123;-51
2022/03/31 06:41:06;;;;;;;41.00;20.98;;;;;;;11.74;61.54;99953.75;5007265;28;104012;-51
2022/03/31 06:43:32;;;;;;;37.88;19.95;;;;;;;11.75;61.55;99955.34;5011237;28;102619;-51
2022/03/31 06:46:01;;;;;;;33.35;19.08;;;;;;;11.75;61.63;99960.81;5008406;28;101981;-51
2022/03/31 06:48:29;;;;;;;26.90;16.02;;;;;;;11.75;61.30;99952.63;5005588;28;102153;-51
2022/03/31 06:50:57;;;;;;;32.45;17.13;;;;;;;11.76;61.76;99967.91;4993438;28;103374;-51
2022/03/31 06:53:25;;;;;;;24.42;17.33;;;;;;;11.77;61.86;99963.25;4991876;28;101972;-51
2022/03/31 06:55:52;;;;;;;28.13;15.48;;;;;;;11.78;61.55;99965.66;4990791;28;101911;-51
2022/03/31 06:58:21;;;;;;;24.27;14.25;;;;;;;11.79;61.49;99955.56;4992278;28;101989;-51
2022/03/31 07:00:48;;;;;;;23.80;12.95;;;;;;;11.82;61.34;99954.16;4995666;28;104043;-51
2022/03/31 07:03:16;;;;;;;22.42;12.80;;;;;;;11.82;61.77;99954.16;5010591;28;102109;-51
2022/03/31 07:05:42;;;;;;;20.77;11.60;;;;;;;11.82;61.77;99949.53;5011408;28;101930;-51
2022/03/31 07:08:20;;;;;;;17.02;10.90;;;;;;;11.83;61.76;99950.31;4992254;28;102159;-51
2022/03/31 07:10:47;;;;;;;19.40;10.48;;;;;;;11.84;61.70;99960.19;4991265;28;103929;-51
2022/03/31 07:13:16;;;;;;;19.05;10.05;;;;;;;11.84;61.53;99957.44;5011113;28;102302;-51
2022/03/31 07:15:45;;;;;;;19.45;10.63;;;;;;;11.85;61.59;99964.50;5010872;28;102245;-51
2022/03/31 07:18:11;;;;;;;22.98;10.35;;;;;;;11.85;61.23;99965.31;5001871;28;102323;-51
2022/03/31 07:20:39;;;;;;;18.35;9.57;;;;;;;11.85;61.73;99964.50;4990915;28;104102;-51
2022/03/31 07:23:06;;;;;;;17.65;10.13;;;;;;;11.87;61.81;99982.19;4992839;28;102831;-51
2022/03/31 07:25:33;;;;;;;16.05;9.63;;;;;;;11.87;61.73;99978.66;4996235;28;103856;-51
2022/03/31 07:27:59;;;;;;;16.38;9.80;;;;;;;11.87;61.71;99973.22;4991755;28;102499;-52
2022/03/31 07:30:26;;;;;;;18.63;10.25;;;;;;;11.87;61.73;99973.22;4990495;28;103870;-51
2022/03/31 07:32:55;;;;;;;19.35;10.88;;;;;;;11.88;61.48;99977.56;4990199;28;102111;-51
2022/03/31 07:35:24;;;;;;;18.67;9.93;;;;;;;11.89;61.64;99976.44;4997856;28;102218;-51
2022/03/31 07:37:53;;;;;;;14.85;9.25;;;;;;;11.89;61.55;99968.25;5006673;28;102878;-52
2022/03/31 07:40:21;;;;;;;17.27;10.30;;;;;;;11.89;61.67;99969.06;4997831;28;104001;-51
2022/03/31 07:42:49;;;;;;;23.70;10.80;;;;;;;11.90;61.75;99967.97;4995085;28;101999;-51
2022/03/31 07:45:16;;;;;;;15.98;9.43;;;;;;;11.89;61.55;99974.53;4995787;28;102201;-51
2022/03/31 07:47:44;;;;;;;18.27;9.68;;;;;;;11.90;61.81;99981.63;5011537;28;102398;-51
2022/03/31 07:50:14;;;;;;;16.38;9.65;;;;;;;11.92;61.51;99984.03;5010502;28;104523;-51
2022/03/31 07:52:42;;;;;;;19.10;9.50;;;;;;;11.91;61.70;99977.78;5010936;28;102308;-51
2022/03/31 07:55:13;;;;;;;14.85;9.88;;;;;;;11.91;61.32;99983.22;5000393;28;102157;-51
2022/03/31 07:57:39;;;;;;;17.80;9.82;;;;;;;11.92;61.48;99986.75;4995115;28;101991;-51
2022/03/31 08:00:11;;;;;;;17.52;10.13;;;;;;;11.94;61.37;99984.56;4995283;28;103936;-51
2022/03/31 08:02:39;;;;;;;15.98;8.77;;;;;;;11.94;61.60;99984.56;5001974;28;102720;-51
2022/03/31 08:05:07;;;;;;;17.27;9.65;;;;;;;11.94;61.43;99987.28;5005531;28;102158;-51
2022/03/31 08:07:35;;;;;;;;;;;;;;;11.94;61.28;99993.53;4999085;28;102526;-51
2022/03/31 08:10:03;;;;;;;18.42;9.88;;;;;;;11.95;61.83;99994.34;5007649;28;103980;-51
2022/03/31 08:12:31;;;;;;;17.70;9.40;;;;;;;11.95;61.48;99997.88;4994604;28;101944;-51
2022/03/31 08:14:58;;;;;;;18.23;9.00;;;;;;;11.96;61.41;99994.03;5012747;28;102254;-51
2022/03/31 08:17:24;;;;;;;16.85;9.75;;;;;;;11.97;61.51;99989.38;5008279;28;102272;-51
2022/03/31 08:19:50;;;;;;;18.25;9.68;;;;;;;11.97;61.43;99990.22;4996191;28;104527;-51
2022/03/31 08:22:17;;;;;;;16.13;9.38;;;;;;;11.99;61.26;99998.91;5009057;28;102458;-51
2022/03/31 08:24:45;;;;;;;16.75;9.57;;;;;;;11.99;61.65;100000.81;5008673;28;101975;-51
2022/03/31 08:27:12;;;;;;;18.10;9.63;;;;;;;11.99;61.37;100000.81;5014576;28;102537;-51
2022/03/31 08:29:40;;;;;;;15.57;8.95;;;;;;;12.00;61.38;99999.69;5009183;28;103843;-51
2022/03/31 08:32:08;;;;;;;15.65;8.30;;;;;;;12.00;61.46;99999.69;4993129;28;102183;-51
2022/03/31 08:34:35;;;;;;;19.15;10.35;;;;;;;12.01;61.54;99996.69;4993133;28;102489;-51
2022/03/31 08:37:08;;;;;;;16.38;8.98;;;;;;;12.01;61.79;99999.41;4993918;28;102649;-51
2022/03/31 08:39:36;;;;;;;17.73;9.00;;;;;;;12.01;61.45;99995.88;4992560;28;103925;-51
2022/03/31 08:42:06;;;;;;;18.73;9.23;;;;;;;12.03;61.76;100010.03;4994547;28;102551;-51
2022/03/31 08:44:36;;;;;;;19.35;10.02;;;;;;;12.02;61.48;100008.41;4998915;28;101908;-51
2022/03/31 08:47:07;;;;;;;18.27;9.25;;;;;;;12.03;61.61;99999.09;5014004;28;102012;-51
2022/03/31 08:49:35;;;;;;;15.57;9.32;;;;;;;12.03;61.34;99993.66;5009902;28;103854;-51
2022/03/31 08:52:03;;;;;;;15.77;9.00;;;;;;;12.03;61.55;99991.72;5011040;28;102235;-51
2022/03/31 08:54:29;;;;;;;17.23;9.85;;;;;;;12.04;61.73;99981.63;5007610;28;102374;-51
2022/03/31 08:56:56;;;;;;;15.30;9.05;;;;;;;12.05;61.64;99966.91;4997568;28;102134;-51
2022/03/31 08:59:24;;;;;;;18.90;9.20;;;;;;;12.06;61.69;99970.44;4998434;28;104077;-51
2022/03/31 09:01:51;;;;;;;17.80;9.90;;;;;;;12.05;61.41;99969.63;5007983;28;102323;-52
2022/03/31 09:04:23;;;;;;;19.85;9.18;;;;;;;12.05;61.36;99966.91;4991312;28;102234;-51
2022/03/31 09:07:01;;;;;;;14.75;8.57;;;;;;;12.05;61.59;99958.72;4998109;28;102105;-51
2022/03/31 09:09:29;;;;;;;19.45;9.35;;;;;;;12.05;61.64;99964.19;4991853;28;103835;-52
2022/03/31 09:11:57;;;;;;;18.50;8.70;;;;;;;12.07;61.64;99970.13;5001865;28;101927;-51
2022/03/31 09:14:29;;;;;;;20.80;8.48;;;;;;;12.07;61.55;99967.41;5005631;28;102266;-51
2022/03/31 09:16:55;;;;;;;17.20;9.15;;;;;;;12.07;61.73;99955.69;5010419;28;102034;-51
2022/03/31 09:19:25;;;;;;;19.58;9.82;;;;;;;12.07;61.38;99956.50;5011723;28;103777;-51
2022/03/31 09:21:54;;;;;;;14.27;9.25;;;;;;;12.07;61.65;99967.41;5012540;28;101881;-51
2022/03/31 09:24:34;;;;;;;14.32;8.32;;;;;;;12.08;61.77;99963.59;5012329;28;102284;-51
2022/03/31 09:27:02;;;;;;;14.05;7.97;;;;;;;12.06;61.87;99952.16;5007646;28;102151;-52
2022/03/31 09:29:30;;;;;;;15.48;7.85;;;;;;;12.07;61.97;99961.94;4992474;28;104016;-51
2022/03/31 09:32:07;;;;;;;17.85;8.15;;;;;;;12.08;61.58;99958.13;4992623;28;102292;-52
2022/03/31 09:34:43;;;;;;;13.07;8.18;;;;;;;12.07;61.31;99948.31;4992194;28;101863;-51
2022/03/31 09:37:11;;;;;;;16.75;7.68;;;;;;;12.08;61.93;99936.31;5001176;28;102593;-51
2022/03/31 09:39:39;;;;;;;15.93;7.75;;;;;;;12.10;61.75;99938.72;4992591;28;104169;-51
2022/03/31 09:42:11;;;;;;;15.15;7.90;;;;;;;12.08;61.37;99933.59;5008630;28;102315;-51
2022/03/31 09:44:39;;;;;;;14.93;7.45;;;;;;;12.10;61.60;99942.25;5013729;28;102199;-51
2022/03/31 09:47:06;;;;;;;16.45;8.48;;;;;;;12.11;61.75;99935.69;5014238;28;102776;-51
2022/03/31 09:49:32;;;;;;;13.93;7.70;;;;;;;12.12;61.79;99934.59;5001472;28;103464;-52
2022/03/31 09:52:03;;;;;;;16.95;8.10;;;;;;;12.13;61.77;99927.22;5013643;28;102637;-51
2022/03/31 09:54:30;;;;;;;17.27;7.82;;;;;;;12.12;61.54;99920.16;5012484;28;101905;-51
2022/03/31 09:56:59;;;;;;;14.23;7.63;;;;;;;12.12;61.65;99925.59;4995314;28;102000;-51
2022/03/31 09:59:30;;;;;;;15.38;7.93;;;;;;;12.13;61.76;99928.03;4992230;28;103979;-51
2022/03/31 10:01:59;;;;;;;15.15;7.35;;;;;;;12.14;61.90;99918.72;4994030;28;102411;-51
2022/03/31 10:04:26;;;;;;;17.00;8.18;;;;;;;12.14;61.59;99910.53;5004662;28;101991;-51
2022/03/31 10:06:53;;;;;;;18.02;7.47;;;;;;;12.14;61.71;99909.75;5001884;28;102559;-52
2022/03/31 10:09:22;;;;;;;15.23;7.43;;;;;;;12.13;61.72;99908.94;5010237;28;104103;-51
2022/03/31 10:11:55;;;;;;;17.40;7.32;;;;;;;12.15;61.59;99904.00;4998436;28;103703;-51
2022/03/31 10:14:30;;;;;;;17.95;7.97;;;;;;;12.15;61.58;99911.34;4994738;28;102624;-51
2022/03/31 10:16:59;;;;;;;14.45;7.38;;;;;;;12.15;61.82;99912.19;4998576;28;102226;-52
2022/03/31 10:19:28;;;;;;;;;;;;;;;12.15;61.64;99906.72;4994618;28;103854;-51
2022/03/31 10:21:58;;;;;;;;;;;;;;;12.14;61.58;99907.81;5004649;28;102296;-51
2022/03/31 10:24:42;;;;;;;12.95;7.18;;;;;;;12.13;61.34;99899.94;5009822;28;102067;-51
2022/03/31 10:27:09;;;;;;;11.70;6.90;;;;;;;12.14;61.74;99894.19;4996201;28;102131;-51
2022/03/31 10:29:39;;;;;;;15.55;8.50;;;;;;;12.14;62.03;99896.91;5003411;28;104251;-51
2022/03/31 10:32:21;;;;;;;12.98;6.80;;;;;;;12.13;61.71;99884.38;5012252;28;102272;-51
2022/03/31 10:34:49;;;;;;;17.08;7.97;;;;;;;12.14;61.84;99890.66;5004539;28;102542;-52
2022/03/31 10:37:18;;;;;;;12.55;6.65;;;;;;;12.13;61.68;99895.28;4995436;28;102131;-51
2022/03/31 10:39:56;;;;;;;15.65;7.50;;;;;;;12.14;61.73;99883.25;5006996;28;104085;-51
2022/03/31 10:42:23;;;;;;;13.38;7.18;;;;;;;12.13;61.97;99878.94;4997219;28;102349;-51
2022/03/31 10:45:09;;;;;;;13.52;7.63;;;;;;;12.14;61.42;99871.56;4993185;28;101893;-51
2022/03/31 10:47:39;;;;;;;13.48;7.63;;;;;;;12.14;61.96;99875.09;5005578;28;102005;-51
2022/03/31 10:50:08;;;;;;;13.88;7.68;;;;;;;12.14;61.42;99880.53;4992104;28;103297;-51
2022/03/31 10:52:35;;;;;;;10.82;6.30;;;;;;;12.14;61.68;99875.09;4995945;28;102689;-51
2022/03/31 10:55:10;;;;;;;13.98;6.70;;;;;;;12.15;61.69;99886.78;5009129;28;101941;-51
2022/03/31 10:57:41;;;;;;;15.15;7.15;;;;;;;12.15;61.73;99897.72;5007692;28;102314;-51
2022/03/31 11:00:11;;;;;;;13.63;6.60;;;;;;;12.14;61.72;99886.00;5004627;28;104679;-51
2022/03/31 11:02:43;;;;;;;15.95;7.28;;;;;;;12.15;61.64;99905.88;4997057;28;102775;-51
2022/03/31 11:05:10;;;;;;;12.85;6.90;;;;;;;12.13;62.03;99900.75;4993907;28;102639;-51
2022/03/31 11:07:37;;;;;;;13.93;6.97;;;;;;;12.15;61.59;99901.28;4993765;28;104396;-56
2022/03/31 11:10:08;;;;;;;15.20;8.30;;;;;;;12.15;61.74;99904.00;5008515;28;103027;-51
2022/03/31 11:12:36;;;;;;;16.90;7.43;;;;;;;12.14;61.92;99896.91;5011568;28;101992;-51
2022/03/31 11:15:07;;;;;;;15.50;7.78;;;;;;;12.14;61.74;99896.91;4995978;28;102888;-51
2022/03/31 11:17:36;;;;;;;14.05;7.22;;;;;;;12.14;61.77;99883.25;4992837;28;102079;-51
2022/03/31 11:20:19;;;;;;;13.88;7.25;;;;;;;12.13;61.94;99884.38;4995992;28;103709;-51